Ecokeeper — SVTY — position and weather

sailwx.info

Track history (hours):
 
Tides and Currents Weather Stations Pressure Air Temp Water Temp Dewpoint Dewpoint Depression Visibility Wind Speed Wind Dir Waves Ship Positions

Ecokeeper

Last reported at 2014-Oct-18 05:33 UTC. Time now 2014-Oct-23 00:03 UTC.
Position N 37°57' E 023°34'.

Length 90 m; draft 6.7 m.

Type: Tanker. MMSI: 240689000.

Date/timePositionNaut miles runAvg speedWind from/ knotsBaromVisibWave heightAir tempDewpointWater temp
2014-Oct-18 05:33N 37°57' E 023°34'2 1.9
2014-Oct-18 04:33N 37°55' E 023°35'7 6.6
2014-Oct-18 03:33N 37°50' E 023°40'8 8.0
2014-Oct-18 02:33N 37°43' E 023°44'8 8.1
2014-Oct-18 01:32N 37°38' E 023°53'10 8.0
2014-Oct-18 00:15N 37°37' E 024°06'14 8.3
2014-Oct-17 22:33N 37°46' E 024°19'70 8.3
2014-Oct-17 14:06N 38°07' E 025°44'  
2014-Oct-09 04:11N 39°54' E 025°04'  
Track history (hours):
 
Tides and Currents Weather Stations Pressure Air Temp Water Temp Dewpoint Dewpoint Depression Visibility Wind Speed Wind Dir Waves Ship Positions

Ecokeeper

Last reported at 2014-Oct-18 05:33 UTC. Time now 2014-Oct-23 00:03 UTC.
Position N 37°57' E 023°34'.

Length 90 m; draft 6.7 m.

Type: Tanker. MMSI: 240689000.

Date/timePositionNaut miles runAvg speedWind from/ knotsBaromVisibWave heightAir tempDewpointWater temp
2014-Oct-18 05:33N 37°57' E 023°34'2 1.9
2014-Oct-18 04:33N 37°55' E 023°35'7 6.6
2014-Oct-18 03:33N 37°50' E 023°40'8 8.0
2014-Oct-18 02:33N 37°43' E 023°44'8 8.1
2014-Oct-18 01:32N 37°38' E 023°53'10 8.0
2014-Oct-18 00:15N 37°37' E 024°06'14 8.3
2014-Oct-17 22:33N 37°46' E 024°19'70 8.3
2014-Oct-17 14:06N 38°07' E 025°44'  
2014-Oct-09 04:11N 39°54' E 025°04'  

Dump ship's entire track history